createdAt,value
2023-05-16T00:00:49.036Z,94.34
2023-05-16T00:02:00.405Z,94.30
2023-05-16T00:03:03.470Z,94.25
2023-05-16T00:04:06.629Z,94.26
2023-05-16T00:05:10.747Z,94.27
2023-05-16T00:06:13.578Z,94.21
2023-05-16T00:07:16.502Z,94.26
2023-05-16T00:08:19.390Z,94.25
2023-05-16T00:09:22.243Z,94.10
2023-05-16T00:10:25.175Z,94.15
2023-05-16T00:11:28.483Z,94.26
2023-05-16T00:12:32.973Z,94.17
2023-05-16T00:13:35.877Z,94.26
2023-05-16T00:14:38.605Z,94.25
2023-05-16T00:15:41.759Z,94.27
2023-05-16T00:16:44.625Z,94.24
2023-05-16T00:17:47.470Z,94.22
2023-05-16T00:18:51.027Z,94.30
2023-05-16T00:19:58.263Z,94.35
2023-05-16T00:21:01.376Z,94.29
2023-05-16T00:22:04.391Z,94.35
2023-05-16T00:23:07.103Z,94.31
2023-05-16T00:24:09.898Z,94.31
2023-05-16T00:25:12.768Z,94.30
2023-05-16T00:26:15.607Z,94.34
2023-05-16T00:27:18.740Z,94.31
2023-05-16T00:28:21.481Z,94.31
2023-05-16T00:29:24.536Z,94.27
2023-05-16T00:30:27.453Z,94.25
2023-05-16T00:31:30.439Z,94.16
2023-05-16T00:32:33.396Z,94.23
2023-05-16T00:33:36.794Z,94.27
2023-05-16T00:34:39.704Z,94.18
2023-05-16T00:35:42.498Z,94.27
2023-05-16T00:36:47.265Z,94.30
2023-05-16T00:37:51.424Z,94.33
2023-05-16T00:38:54.154Z,94.33
2023-05-16T00:39:57.287Z,94.32
2023-05-16T00:41:00.056Z,94.28
2023-05-16T00:42:03.137Z,94.24
2023-05-16T00:43:07.577Z,94.32
2023-05-16T00:44:10.572Z,94.30
2023-05-16T00:45:13.357Z,94.30
2023-05-16T00:46:16.216Z,94.29
2023-05-16T00:47:18.977Z,94.24
2023-05-16T00:48:21.681Z,94.25
2023-05-16T00:49:24.478Z,94.21
2023-05-16T00:50:27.550Z,94.26
2023-05-16T00:51:30.863Z,94.24
2023-05-16T00:52:33.875Z,94.19
2023-05-16T00:53:37.356Z,94.25
2023-05-16T00:54:40.088Z,94.17
2023-05-16T00:55:42.933Z,94.20
2023-05-16T00:56:45.925Z,94.24
2023-05-16T00:57:48.714Z,94.28
2023-05-16T00:58:51.421Z,94.29
2023-05-16T00:59:54.656Z,94.30
2023-05-16T01:00:57.474Z,94.34
2023-05-16T01:02:01.395Z,94.30
2023-05-16T01:03:07.056Z,94.32
2023-05-16T01:04:10.203Z,94.33
2023-05-16T01:05:13.220Z,94.32
2023-05-16T01:06:16.206Z,94.28
2023-05-16T01:07:18.908Z,94.32
2023-05-16T01:08:21.758Z,94.23
2023-05-16T01:09:24.640Z,94.29
2023-05-16T01:10:31.394Z,94.32
2023-05-16T01:11:42.177Z,94.35
2023-05-16T01:12:47.734Z,94.37
2023-05-16T01:14:00.120Z,94.38
2023-05-16T01:15:12.538Z,94.41
2023-05-16T01:16:20.972Z,94.29
2023-05-16T01:17:29.450Z,94.25
2023-05-16T01:18:43.467Z,94.29
2023-05-16T01:19:48.317Z,94.21
2023-05-16T01:21:03.964Z,94.26
2023-05-16T01:22:15.578Z,94.20
2023-05-16T01:23:37.108Z,94.18
2023-05-16T01:24:44.332Z,94.23
2023-05-16T01:26:05.767Z,94.28
2023-05-16T01:27:10.728Z,94.28
2023-05-16T01:28:15.694Z,94.28
2023-05-16T01:29:19.146Z,94.27
2023-05-16T01:30:21.979Z,94.32
2023-05-16T01:31:42.755Z,94.20
2023-05-16T01:32:46.203Z,94.25
2023-05-16T01:33:49.308Z,94.29
2023-05-16T01:34:52.337Z,94.27
2023-05-16T01:36:11.785Z,94.33
2023-05-16T01:37:24.430Z,94.34
2023-05-16T01:38:30.597Z,94.22
2023-05-16T01:39:54.520Z,94.22
2023-05-16T01:41:04.533Z,94.25
2023-05-16T01:42:10.222Z,94.32
2023-05-16T01:43:14.153Z,94.29
2023-05-16T01:44:22.999Z,94.32
2023-05-16T01:45:28.232Z,94.28
2023-05-16T01:46:37.501Z,94.36
2023-05-16T01:47:41.562Z,94.32
2023-05-16T01:48:51.451Z,94.30
2023-05-16T01:49:54.245Z,94.36
2023-05-16T01:50:57.809Z,94.46
2023-05-16T01:52:02.183Z,94.43
2023-05-16T01:53:09.464Z,94.34
2023-05-16T01:54:13.786Z,94.40
2023-05-16T01:55:27.950Z,94.35
2023-05-16T01:56:31.894Z,94.35
2023-05-16T01:57:36.274Z,94.47
2023-05-16T01:58:39.348Z,94.53
2023-05-16T01:59:43.099Z,94.48
2023-05-16T02:00:46.553Z,94.42
2023-05-16T02:01:49.614Z,94.46
2023-05-16T02:02:52.393Z,94.43
2023-05-16T02:03:55.263Z,94.45
2023-05-16T02:04:58.075Z,94.42
2023-05-16T02:06:01.125Z,94.47
2023-05-16T02:07:04.141Z,94.46
2023-05-16T02:08:06.903Z,94.46
2023-05-16T02:09:09.655Z,94.35
2023-05-16T02:10:16.074Z,94.36
2023-05-16T02:11:18.960Z,94.48
2023-05-16T02:12:21.825Z,94.44
2023-05-16T02:13:24.793Z,94.24
2023-05-16T02:14:27.949Z,94.39
2023-05-16T02:15:30.958Z,94.37
2023-05-16T02:16:35.449Z,94.31
2023-05-16T02:17:38.443Z,94.26
2023-05-16T02:18:41.433Z,94.29
2023-05-16T02:19:44.283Z,94.47
2023-05-16T02:20:47.684Z,94.40
2023-05-16T02:21:51.943Z,94.39
2023-05-16T02:22:54.673Z,94.45
2023-05-16T02:23:57.404Z,94.37
2023-05-16T02:25:03.671Z,94.24
2023-05-16T02:26:06.677Z,94.31
2023-05-16T02:27:09.668Z,94.36
2023-05-16T02:28:12.516Z,94.28
2023-05-16T02:29:16.874Z,94.40
2023-05-16T02:30:19.789Z,94.19
2023-05-16T02:31:28.233Z,94.29
2023-05-16T02:32:31.798Z,94.47
2023-05-16T02:33:34.791Z,94.30
2023-05-16T02:34:37.993Z,94.48
2023-05-16T02:35:40.767Z,94.46
2023-05-16T02:36:43.623Z,94.38
2023-05-16T02:37:46.731Z,94.46
2023-05-16T02:38:49.468Z,94.50
2023-05-16T02:39:52.268Z,94.52
2023-05-16T02:40:54.980Z,94.52
2023-05-16T02:41:57.645Z,94.58
2023-05-16T02:43:00.586Z,94.55
2023-05-16T02:44:03.273Z,94.41
2023-05-16T02:45:06.477Z,94.44
2023-05-16T02:46:28.764Z,94.55
2023-05-16T02:47:32.106Z,94.47
2023-05-16T02:48:35.801Z,94.50
2023-05-16T02:49:38.564Z,94.50
2023-05-16T02:50:42.649Z,94.48
2023-05-16T02:51:45.800Z,94.56
2023-05-16T02:52:48.578Z,94.63
2023-05-16T02:53:51.876Z,94.59
2023-05-16T02:56:00.784Z,94.57
2023-05-16T02:57:03.698Z,94.58
2023-05-16T02:58:06.398Z,94.48
2023-05-16T02:59:09.133Z,94.50
2023-05-16T03:00:12.828Z,94.62
2023-05-16T03:01:16.308Z,94.41
2023-05-16T03:02:19.179Z,94.37
2023-05-16T03:03:22.131Z,94.58
2023-05-16T03:04:25.434Z,94.62
2023-05-16T03:05:28.525Z,94.58
2023-05-16T03:06:31.601Z,94.63
2023-05-16T03:07:35.961Z,94.66
2023-05-16T03:08:41.589Z,94.59
2023-05-16T03:09:44.328Z,94.68
2023-05-16T03:10:47.785Z,94.67
2023-05-16T03:11:50.501Z,94.70
2023-05-16T03:12:55.578Z,94.69
2023-05-16T03:14:01.799Z,94.58
2023-05-16T03:15:05.151Z,94.66
2023-05-16T03:16:07.958Z,94.66
2023-05-16T03:17:11.776Z,94.65
2023-05-16T03:18:14.519Z,94.63
2023-05-16T03:19:19.089Z,94.72
2023-05-16T03:20:22.770Z,94.76
2023-05-16T03:21:26.292Z,94.65
2023-05-16T03:22:29.125Z,94.52
2023-05-16T03:23:31.924Z,94.53
2023-05-16T03:24:34.769Z,94.55
2023-05-16T03:25:38.236Z,94.67
2023-05-16T03:26:41.601Z,94.70
2023-05-16T03:27:44.668Z,94.48
2023-05-16T03:28:47.614Z,94.45
2023-05-16T03:29:50.457Z,94.63
2023-05-16T03:30:53.425Z,94.54
2023-05-16T03:31:56.408Z,94.67
2023-05-16T03:32:59.299Z,94.64
2023-05-16T03:34:02.154Z,94.64
2023-05-16T03:35:05.235Z,94.62
2023-05-16T03:36:08.268Z,94.73
2023-05-16T03:37:11.501Z,94.74
2023-05-16T03:38:14.306Z,94.77
2023-05-16T03:39:19.971Z,94.65
2023-05-16T03:40:22.721Z,94.74
2023-05-16T03:41:26.574Z,94.44
2023-05-16T03:42:29.777Z,94.53
2023-05-16T03:43:32.436Z,94.47
2023-05-16T03:44:35.393Z,94.52
2023-05-16T03:45:38.622Z,94.67
2023-05-16T03:46:41.595Z,94.46
2023-05-16T03:47:44.365Z,94.58
2023-05-16T03:48:47.394Z,94.56
2023-05-16T03:49:50.202Z,94.51
2023-05-16T03:50:53.185Z,94.71
2023-05-16T03:51:55.897Z,94.49
2023-05-16T03:52:58.575Z,94.43
2023-05-16T03:54:01.464Z,94.39
2023-05-16T03:55:06.569Z,94.53
2023-05-16T03:56:09.349Z,94.46
2023-05-16T03:57:12.265Z,94.37
2023-05-16T03:58:16.370Z,94.55
2023-05-16T03:59:19.121Z,94.39
2023-05-16T04:00:21.845Z,94.42
2023-05-16T04:01:24.676Z,94.52
2023-05-16T04:02:27.495Z,94.55
2023-05-16T04:03:30.393Z,94.53
2023-05-16T04:04:33.178Z,94.45
2023-05-16T04:05:36.031Z,94.40
2023-05-16T04:06:38.887Z,94.18
2023-05-16T04:07:41.980Z,94.13
2023-05-16T04:08:45.040Z,94.21
2023-05-16T04:09:47.803Z,94.32
2023-05-16T04:10:50.640Z,94.34
2023-05-16T04:11:53.349Z,93.96
2023-05-16T04:12:56.221Z,94.17
2023-05-16T04:13:59.665Z,94.07
2023-05-16T04:15:03.581Z,94.03
2023-05-16T04:16:06.446Z,93.72
2023-05-16T04:17:09.539Z,93.64
2023-05-16T04:18:13.205Z,93.90
2023-05-16T04:19:16.501Z,94.13
2023-05-16T04:20:19.523Z,93.99
2023-05-16T04:21:22.618Z,94.18
2023-05-16T04:22:25.680Z,94.19
2023-05-16T04:23:28.417Z,94.27
2023-05-16T04:24:31.192Z,94.13
2023-05-16T04:25:34.423Z,93.63
2023-05-16T04:26:40.213Z,93.88
2023-05-16T04:27:43.057Z,93.45
2023-05-16T04:28:45.966Z,93.85
2023-05-16T04:29:48.931Z,93.74
2023-05-16T04:30:51.718Z,94.06
2023-05-16T04:31:54.552Z,94.17
2023-05-16T04:32:59.516Z,93.72
2023-05-16T04:34:02.571Z,93.55
2023-05-16T04:35:05.651Z,93.97
2023-05-16T04:36:08.550Z,94.05
2023-05-16T04:37:11.710Z,93.96
2023-05-16T04:38:14.436Z,93.97
2023-05-16T04:39:17.505Z,94.04
2023-05-16T04:40:20.342Z,94.00
2023-05-16T04:41:23.993Z,94.12
2023-05-16T04:42:26.962Z,93.94
2023-05-16T04:43:30.409Z,93.89
2023-05-16T04:44:33.259Z,93.93
2023-05-16T04:45:37.683Z,93.86
2023-05-16T04:46:41.645Z,94.02
2023-05-16T04:47:44.520Z,94.10
2023-05-16T04:48:47.352Z,94.33
2023-05-16T04:49:50.236Z,94.16
2023-05-16T04:50:52.970Z,94.34
2023-05-16T04:51:55.867Z,94.21
2023-05-16T04:52:58.740Z,94.29
2023-05-16T04:54:01.543Z,93.95
2023-05-16T04:55:04.591Z,93.86
2023-05-16T04:56:07.945Z,94.19
2023-05-16T04:57:10.742Z,94.11
2023-05-16T04:58:13.422Z,94.11
2023-05-16T04:59:16.266Z,93.76
2023-05-16T05:00:19.511Z,93.44
2023-05-16T05:01:22.387Z,93.88
2023-05-16T05:02:25.503Z,93.85
2023-05-16T05:03:28.280Z,93.84
2023-05-16T05:04:31.090Z,93.94
2023-05-16T05:05:34.217Z,94.02
2023-05-16T05:06:37.650Z,94.09
2023-05-16T05:07:41.184Z,93.89
2023-05-16T05:08:44.062Z,94.13
2023-05-16T05:09:46.794Z,94.09
2023-05-16T05:10:49.640Z,94.15
2023-05-16T05:11:52.721Z,94.25
2023-05-16T05:12:55.705Z,94.14
2023-05-16T05:13:58.471Z,94.04
2023-05-16T05:15:01.338Z,93.89
2023-05-16T05:16:04.978Z,93.90
2023-05-16T05:17:07.783Z,93.87
2023-05-16T05:18:10.988Z,93.73
2023-05-16T05:19:13.938Z,93.32
2023-05-16T05:20:16.932Z,93.92
2023-05-16T05:21:20.367Z,93.93
2023-05-16T05:22:23.213Z,93.85
2023-05-16T05:23:26.189Z,93.98
2023-05-16T05:24:28.950Z,93.96
2023-05-16T05:25:34.821Z,94.03
2023-05-16T05:26:38.594Z,93.93
2023-05-16T05:27:41.454Z,94.00
2023-05-16T05:28:53.804Z,93.82
2023-05-16T05:30:04.557Z,93.97
2023-05-16T05:31:08.295Z,94.02
2023-05-16T05:32:11.190Z,93.89
2023-05-16T05:33:14.733Z,93.96
2023-05-16T05:34:17.688Z,93.82
2023-05-16T05:35:20.964Z,93.88
2023-05-16T05:36:23.933Z,93.75
2023-05-16T05:37:27.085Z,93.93
2023-05-16T05:38:29.982Z,93.59
2023-05-16T05:39:32.792Z,93.19
2023-05-16T05:40:35.805Z,93.77
2023-05-16T05:41:38.692Z,93.25
2023-05-16T05:42:42.242Z,93.44
2023-05-16T05:43:46.272Z,93.71
2023-05-16T05:44:49.050Z,93.42
2023-05-16T05:45:52.286Z,93.30
2023-05-16T05:46:55.378Z,93.41
2023-05-16T05:47:58.164Z,93.25
2023-05-16T05:49:01.324Z,93.16
2023-05-16T05:50:04.486Z,93.60
2023-05-16T05:51:07.210Z,93.67
2023-05-16T05:52:09.916Z,93.44
2023-05-16T05:53:12.653Z,93.61
2023-05-16T05:54:15.744Z,93.88
2023-05-16T05:55:18.567Z,93.88
2023-05-16T05:56:22.031Z,93.52
2023-05-16T05:57:24.764Z,93.89
2023-05-16T05:58:27.555Z,93.94
2023-05-16T05:59:30.529Z,93.75
2023-05-16T06:00:33.489Z,94.22
2023-05-16T06:01:36.665Z,93.62
2023-05-16T06:02:39.645Z,93.34
2023-05-16T06:03:43.033Z,93.58
2023-05-16T06:04:45.869Z,93.73
2023-05-16T06:05:48.992Z,93.75
2023-05-16T06:06:51.855Z,94.00
2023-05-16T06:07:54.657Z,93.87
2023-05-16T06:08:57.650Z,93.79
2023-05-16T06:10:05.102Z,94.07
2023-05-16T06:11:08.110Z,94.13
2023-05-16T06:12:10.960Z,93.83
2023-05-16T06:13:13.843Z,93.74
2023-05-16T06:14:16.615Z,93.87
2023-05-16T06:15:19.491Z,93.56
2023-05-16T06:16:25.914Z,93.44
2023-05-16T06:17:28.742Z,93.72
2023-05-16T06:18:31.557Z,93.36
2023-05-16T06:19:34.265Z,93.85
2023-05-16T06:20:37.020Z,93.78
2023-05-16T06:21:39.748Z,93.69
2023-05-16T06:22:42.462Z,93.95
2023-05-16T06:23:45.350Z,93.73
2023-05-16T06:24:48.050Z,93.42
2023-05-16T06:25:51.032Z,93.52
2023-05-16T06:26:53.914Z,93.92
2023-05-16T06:27:57.350Z,93.62
2023-05-16T06:29:00.165Z,93.24
2023-05-16T06:30:02.955Z,93.49
2023-05-16T06:31:05.979Z,93.99
2023-05-16T06:32:10.390Z,93.89
2023-05-16T06:33:15.743Z,93.48
2023-05-16T06:34:18.415Z,93.70
2023-05-16T06:35:21.355Z,93.87
2023-05-16T06:36:24.120Z,93.88
2023-05-16T06:37:26.884Z,94.09
2023-05-16T06:38:29.590Z,93.15
2023-05-16T06:39:32.432Z,93.43
2023-05-16T06:40:35.183Z,93.94
2023-05-16T06:41:38.002Z,94.01
2023-05-16T06:42:40.720Z,94.02
2023-05-16T06:43:43.666Z,93.77
2023-05-16T06:44:46.902Z,93.84
2023-05-16T06:45:49.812Z,94.00
2023-05-16T06:46:53.078Z,93.96
2023-05-16T06:47:57.667Z,94.00
2023-05-16T06:49:00.581Z,94.07
2023-05-16T06:50:03.451Z,93.75
2023-05-16T06:51:06.433Z,93.94
2023-05-16T06:52:09.947Z,93.91
2023-05-16T06:53:12.982Z,93.25
2023-05-16T06:54:16.067Z,93.36
2023-05-16T06:55:19.024Z,93.43
2023-05-16T06:56:22.011Z,92.91
2023-05-16T06:57:24.891Z,93.62
2023-05-16T06:58:27.786Z,93.43
2023-05-16T06:59:30.681Z,93.23
2023-05-16T07:00:33.723Z,93.35
2023-05-16T07:01:36.662Z,93.23
2023-05-16T07:02:39.559Z,93.01
2023-05-16T07:03:42.542Z,92.11
2023-05-16T07:04:45.693Z,92.31
2023-05-16T07:05:48.514Z,92.86
2023-05-16T07:06:51.296Z,91.93
2023-05-16T07:07:54.120Z,91.02
2023-05-16T07:08:56.991Z,92.41
2023-05-16T07:09:59.802Z,92.84
2023-05-16T07:11:02.588Z,93.14
2023-05-16T07:12:05.742Z,92.90
2023-05-16T07:13:08.700Z,93.34
2023-05-16T07:14:11.566Z,93.73
2023-05-16T07:15:14.404Z,93.68
2023-05-16T07:16:17.488Z,93.59
2023-05-16T07:17:20.332Z,93.47
2023-05-16T07:18:23.312Z,91.83
2023-05-16T07:19:26.357Z,92.36
2023-05-16T07:20:29.493Z,92.77
2023-05-16T07:21:32.397Z,92.52
2023-05-16T07:22:35.265Z,92.69
2023-05-16T07:23:38.114Z,92.82
2023-05-16T07:24:41.108Z,93.04
2023-05-16T07:25:43.994Z,93.04
2023-05-16T07:26:46.965Z,93.87
2023-05-16T07:27:49.868Z,93.35
2023-05-16T07:28:52.750Z,93.96
2023-05-16T07:29:55.726Z,94.01
2023-05-16T07:31:01.560Z,94.02
2023-05-16T07:32:04.617Z,94.01
2023-05-16T07:33:09.698Z,93.89
2023-05-16T07:34:12.655Z,93.69
2023-05-16T07:35:15.635Z,93.52
2023-05-16T07:36:18.420Z,93.61
2023-05-16T07:37:21.250Z,94.01
2023-05-16T07:38:24.479Z,93.94
2023-05-16T07:39:27.248Z,93.69
2023-05-16T07:40:29.993Z,93.63
2023-05-16T07:41:32.893Z,93.86
2023-05-16T07:42:35.901Z,94.01
2023-05-16T07:43:38.767Z,93.82
2023-05-16T07:44:41.698Z,94.07
2023-05-16T07:45:44.511Z,94.02
2023-05-16T07:46:47.406Z,93.76
2023-05-16T07:47:50.326Z,92.63
2023-05-16T07:48:53.417Z,93.80
2023-05-16T07:49:56.469Z,93.81
2023-05-16T07:50:59.284Z,93.05
2023-05-16T07:52:02.297Z,92.38
2023-05-16T07:53:05.144Z,93.12
2023-05-16T07:54:07.896Z,93.90
2023-05-16T07:55:10.848Z,93.54
2023-05-16T07:56:13.628Z,93.45
2023-05-16T07:57:16.615Z,93.68
2023-05-16T07:58:19.895Z,93.42
2023-05-16T07:59:22.743Z,91.35
2023-05-16T08:00:25.805Z,91.99
2023-05-16T08:01:28.726Z,92.99
2023-05-16T08:02:31.759Z,93.04
2023-05-16T08:03:35.633Z,93.50
2023-05-16T08:04:38.865Z,93.05
2023-05-16T08:05:41.928Z,93.33
2023-05-16T08:06:44.725Z,92.67
2023-05-16T08:07:47.758Z,93.33
2023-05-16T08:08:50.874Z,93.49
2023-05-16T08:09:53.645Z,93.10
2023-05-16T08:10:56.558Z,92.70
2023-05-16T08:12:03.532Z,91.36
2023-05-16T08:13:06.832Z,92.90
2023-05-16T08:14:09.970Z,93.40
2023-05-16T08:15:12.848Z,92.55
2023-05-16T08:16:15.988Z,92.40
2023-05-16T08:17:19.202Z,92.34
2023-05-16T08:18:22.840Z,92.98
2023-05-16T08:19:26.637Z,93.24
2023-05-16T08:20:29.707Z,93.39
2023-05-16T08:21:32.697Z,91.99
2023-05-16T08:22:36.178Z,92.70
2023-05-16T08:23:39.116Z,92.82
2023-05-16T08:24:42.240Z,92.95
2023-05-16T08:25:45.065Z,93.24
2023-05-16T08:26:47.870Z,93.36
2023-05-16T08:27:51.512Z,92.52
2023-05-16T08:28:54.280Z,91.74
2023-05-16T08:29:57.199Z,92.56
2023-05-16T08:30:59.994Z,92.35
2023-05-16T08:32:02.820Z,92.14
2023-05-16T08:33:06.471Z,91.15
2023-05-16T08:34:10.434Z,92.25
2023-05-16T08:35:13.326Z,91.95
2023-05-16T08:36:16.404Z,92.09
2023-05-16T08:37:19.360Z,91.64
2023-05-16T08:38:22.172Z,92.46
2023-05-16T08:39:25.192Z,92.18
2023-05-16T08:40:28.400Z,92.95
2023-05-16T08:41:31.388Z,92.84
2023-05-16T08:42:34.738Z,92.90
2023-05-16T08:43:37.756Z,92.48
2023-05-16T08:44:40.701Z,92.05
2023-05-16T08:45:43.772Z,92.74
2023-05-16T08:46:50.686Z,93.17
2023-05-16T08:47:54.999Z,92.93
2023-05-16T08:48:59.450Z,92.97
2023-05-16T08:50:06.433Z,92.34
2023-05-16T08:51:09.416Z,92.05
2023-05-16T08:52:13.254Z,90.94
2023-05-16T08:53:21.608Z,91.83
2023-05-16T08:54:25.676Z,91.34
2023-05-16T08:55:30.662Z,92.27
2023-05-16T08:56:34.659Z,92.13
2023-05-16T08:57:38.019Z,92.54
2023-05-16T08:58:41.261Z,92.60
2023-05-16T08:59:45.098Z,92.90
2023-05-16T09:00:48.180Z,93.08
2023-05-16T09:01:51.255Z,92.71
2023-05-16T09:02:54.645Z,93.28
2023-05-16T09:03:58.345Z,93.57
2023-05-16T09:05:01.793Z,93.29
2023-05-16T09:06:07.308Z,93.44
2023-05-16T09:07:11.146Z,91.90
2023-05-16T09:08:14.017Z,91.50
2023-05-16T09:09:16.980Z,89.77
2023-05-16T09:10:19.890Z,91.54
2023-05-16T09:11:22.824Z,92.41
2023-05-16T09:12:25.725Z,92.74
2023-05-16T09:13:28.523Z,92.52
2023-05-16T09:14:31.444Z,92.07
2023-05-16T09:15:34.673Z,92.75
2023-05-16T09:16:37.665Z,91.42
2023-05-16T09:17:43.746Z,92.39
2023-05-16T09:18:52.946Z,93.06
2023-05-16T09:19:58.700Z,92.53
2023-05-16T09:21:01.615Z,92.09
2023-05-16T09:22:04.715Z,92.27
2023-05-16T09:23:07.502Z,92.57
2023-05-16T09:24:10.365Z,92.72
2023-05-16T09:26:22.846Z,92.14
2023-05-16T09:27:25.943Z,91.49
2023-05-16T09:28:28.882Z,91.18
2023-05-16T09:29:31.934Z,92.24
2023-05-16T09:30:35.255Z,93.16
2023-05-16T09:31:38.764Z,92.93
2023-05-16T09:32:45.189Z,93.75
2023-05-16T09:33:49.488Z,94.19
2023-05-16T09:34:53.322Z,93.13
2023-05-16T09:35:57.328Z,93.36
2023-05-16T09:37:00.635Z,90.38
2023-05-16T09:38:03.646Z,91.77
2023-05-16T09:39:07.288Z,93.16
2023-05-16T09:40:10.317Z,93.60
2023-05-16T09:41:13.442Z,90.14
2023-05-16T09:42:17.265Z,92.94
2023-05-16T09:43:21.813Z,91.14
2023-05-16T09:44:24.821Z,92.47
2023-05-16T09:45:28.071Z,92.38
2023-05-16T09:46:31.539Z,88.44
2023-05-16T09:47:35.089Z,90.61
2023-05-16T09:48:42.024Z,90.41
2023-05-16T09:49:45.673Z,90.33
2023-05-16T09:50:52.569Z,90.97
2023-05-16T09:51:55.834Z,90.21
2023-05-16T09:52:59.196Z,90.63
2023-05-16T09:54:01.991Z,91.94
2023-05-16T09:55:07.254Z,92.31
2023-05-16T09:56:14.445Z,91.97
2023-05-16T09:57:20.429Z,88.91
2023-05-16T09:58:28.373Z,90.87
2023-05-16T09:59:32.323Z,89.32
2023-05-16T10:00:35.385Z,90.52
2023-05-16T10:01:38.323Z,89.01
2023-05-16T10:02:42.204Z,86.91
2023-05-16T10:03:45.256Z,89.51
2023-05-16T10:04:48.135Z,91.50
2023-05-16T10:05:53.097Z,91.65
2023-05-16T10:06:57.432Z,91.33
2023-05-16T10:08:02.486Z,91.20
2023-05-16T10:09:05.710Z,90.67
2023-05-16T10:10:08.990Z,89.52
2023-05-16T10:11:12.006Z,89.78
2023-05-16T10:12:15.444Z,90.97
2023-05-16T10:13:22.942Z,89.91
2023-05-16T10:14:26.488Z,90.55
2023-05-16T10:15:30.259Z,90.11
2023-05-16T10:16:33.606Z,90.93
2023-05-16T10:17:40.074Z,90.79
2023-05-16T10:18:43.509Z,88.70
2023-05-16T10:19:47.231Z,90.27
2023-05-16T10:20:53.765Z,89.97
2023-05-16T10:22:00.735Z,88.96
2023-05-16T10:23:04.128Z,91.18
2023-05-16T10:24:07.690Z,90.74
2023-05-16T10:25:46.121Z,91.05
2023-05-16T10:26:49.523Z,88.75
2023-05-16T10:27:52.796Z,89.82
2023-05-16T10:28:55.690Z,90.81
2023-05-16T10:29:58.977Z,87.32
2023-05-16T10:31:03.113Z,89.48
2023-05-16T10:32:06.843Z,86.50
2023-05-16T10:33:19.855Z,89.15
2023-05-16T10:34:23.445Z,90.12
2023-05-16T10:35:27.492Z,90.58
2023-05-16T10:36:31.393Z,87.62
2023-05-16T10:37:34.966Z,85.44
2023-05-16T10:38:38.798Z,86.95
2023-05-16T10:39:41.734Z,88.33
2023-05-16T10:40:45.103Z,90.45
2023-05-16T10:41:48.152Z,88.72
2023-05-16T10:42:57.136Z,89.81
2023-05-16T10:44:00.112Z,90.35
2023-05-16T10:45:23.305Z,86.31
2023-05-16T10:46:27.165Z,85.79
2023-05-16T10:47:30.064Z,86.43
2023-05-16T10:48:33.906Z,88.88
2023-05-16T10:49:40.364Z,88.11
2023-05-16T10:50:44.313Z,87.92
2023-05-16T10:51:53.340Z,86.31
2023-05-16T10:52:56.312Z,89.26
2023-05-16T10:54:05.053Z,84.76
2023-05-16T10:55:07.949Z,88.12
2023-05-16T10:56:11.843Z,81.57
2023-05-16T10:57:23.336Z,85.41
2023-05-16T10:58:41.204Z,83.60
2023-05-16T10:59:48.450Z,84.00
2023-05-16T11:01:11.372Z,87.69
2023-05-16T11:02:28.250Z,87.11
2023-05-16T11:03:31.230Z,87.34
2023-05-16T11:04:54.348Z,85.33
2023-05-16T11:06:00.009Z,85.29
2023-05-16T11:07:03.613Z,86.79
2023-05-16T11:08:06.814Z,82.70
2023-05-16T11:09:13.856Z,85.33
2023-05-16T11:10:16.962Z,86.89
2023-05-16T11:11:38.733Z,84.90
2023-05-16T11:12:46.056Z,85.67
2023-05-16T11:13:55.625Z,86.52
2023-05-16T11:14:58.607Z,80.17
2023-05-16T11:16:20.644Z,80.70
2023-05-16T11:17:24.366Z,81.97
2023-05-16T11:18:27.422Z,84.75
2023-05-16T11:19:47.524Z,84.14
2023-05-16T11:20:51.946Z,79.55
2023-05-16T11:22:10.110Z,80.13
2023-05-16T11:23:17.035Z,84.83
2023-05-16T11:24:32.507Z,83.93
2023-05-16T11:25:39.388Z,83.90
2023-05-16T11:26:42.452Z,77.02
2023-05-16T11:27:46.476Z,79.24
2023-05-16T11:28:49.845Z,80.13
2023-05-16T11:29:53.089Z,80.30
2023-05-16T11:30:58.296Z,83.46
2023-05-16T11:32:02.429Z,85.00
2023-05-16T11:33:05.503Z,85.20
2023-05-16T11:34:08.550Z,85.94
2023-05-16T11:35:14.533Z,86.68
2023-05-16T11:36:17.671Z,85.53
2023-05-16T11:37:20.832Z,83.92
2023-05-16T11:38:23.779Z,83.74
2023-05-16T11:39:26.657Z,84.88
2023-05-16T11:40:29.527Z,84.82
2023-05-16T11:41:32.832Z,86.68
2023-05-16T11:42:36.621Z,80.47
2023-05-16T11:43:41.497Z,87.49
2023-05-16T11:44:44.976Z,88.54
2023-05-16T11:45:54.084Z,88.21
2023-05-16T11:46:57.179Z,82.34
2023-05-16T11:48:02.990Z,80.80
2023-05-16T11:49:06.109Z,84.90
2023-05-16T11:50:13.911Z,85.12
2023-05-16T11:51:20.291Z,81.60
2023-05-16T11:52:23.378Z,84.45
2023-05-16T11:53:28.316Z,85.28
2023-05-16T11:54:32.336Z,81.49
2023-05-16T11:56:41.665Z,81.76
2023-05-16T11:57:44.682Z,81.30
2023-05-16T11:58:47.690Z,78.62
2023-05-16T11:59:51.462Z,84.03
2023-05-16T12:00:54.370Z,77.19
2023-05-16T12:01:57.180Z,78.21
2023-05-16T12:03:05.090Z,79.01
2023-05-16T12:04:09.993Z,84.11
2023-05-16T12:05:14.010Z,81.23
2023-05-16T12:06:16.889Z,83.71
2023-05-16T12:07:21.342Z,85.81
2023-05-16T12:08:26.342Z,79.97
2023-05-16T12:09:29.347Z,78.89
2023-05-16T12:10:33.743Z,78.11
2023-05-16T12:11:39.559Z,78.99
2023-05-16T12:12:43.924Z,81.82
2023-05-16T12:13:46.973Z,81.92
2023-05-16T12:14:52.936Z,76.44
2023-05-16T12:15:56.051Z,77.08
2023-05-16T12:16:59.370Z,74.08
2023-05-16T12:18:02.630Z,73.98
2023-05-16T12:19:06.444Z,73.05
2023-05-16T12:20:14.316Z,76.33
2023-05-16T12:21:17.436Z,74.11
2023-05-16T12:22:20.983Z,73.96
2023-05-16T12:23:23.911Z,80.42
2023-05-16T12:24:30.318Z,82.43
2023-05-16T12:25:36.258Z,76.34
2023-05-16T12:26:40.255Z,79.86
2023-05-16T12:27:45.771Z,78.60
2023-05-16T12:28:53.320Z,84.12
2023-05-16T12:29:58.393Z,82.74
2023-05-16T12:31:01.399Z,83.22
2023-05-16T12:32:04.868Z,81.76
2023-05-16T12:33:09.874Z,77.04
2023-05-16T12:34:20.662Z,72.87
2023-05-16T12:35:24.288Z,78.02
2023-05-16T12:36:31.650Z,76.77
2023-05-16T12:37:34.609Z,73.43
2023-05-16T12:38:37.629Z,78.76
2023-05-16T12:39:40.737Z,76.92
2023-05-16T12:40:44.339Z,77.63
2023-05-16T12:41:47.344Z,76.59
2023-05-16T12:42:56.120Z,82.56
2023-05-16T12:44:14.980Z,77.07
2023-05-16T12:45:18.039Z,72.83
2023-05-16T12:46:21.211Z,73.71
2023-05-16T12:47:24.436Z,82.53
2023-05-16T12:48:32.900Z,79.96
2023-05-16T12:49:35.799Z,84.22
2023-05-16T12:50:39.614Z,82.82
2023-05-16T12:51:49.245Z,77.45
2023-05-16T12:52:53.638Z,82.62
2023-05-16T12:54:08.865Z,80.16
2023-05-16T12:55:16.494Z,84.95
2023-05-16T12:56:20.348Z,75.73
2023-05-16T12:57:23.192Z,81.08
2023-05-16T12:58:27.424Z,78.59
2023-05-16T12:59:31.392Z,81.06
2023-05-16T13:00:34.383Z,78.79
2023-05-16T13:01:37.514Z,69.62
2023-05-16T13:02:40.981Z,75.84
2023-05-16T13:03:44.071Z,81.13
2023-05-16T13:04:47.678Z,80.81
2023-05-16T13:05:50.566Z,81.41
2023-05-16T13:07:59.515Z,74.08
2023-05-16T13:09:02.798Z,78.53
2023-05-16T13:10:07.058Z,82.12
2023-05-16T13:11:09.841Z,76.94
2023-05-16T13:12:14.270Z,75.39
2023-05-16T13:13:28.923Z,75.76
2023-05-16T13:14:38.817Z,80.59
2023-05-16T13:15:42.577Z,80.20
2023-05-16T13:16:45.639Z,72.98
2023-05-16T13:17:49.044Z,74.28
2023-05-16T13:18:52.541Z,83.51
2023-05-16T13:19:55.714Z,81.26
2023-05-16T13:20:58.628Z,76.85
2023-05-16T13:22:01.586Z,82.01
2023-05-16T13:23:05.398Z,86.74
2023-05-16T13:24:08.411Z,88.38
2023-05-16T13:25:11.605Z,88.34
2023-05-16T13:26:14.569Z,88.93
2023-05-16T13:27:20.722Z,86.09
2023-05-16T13:28:26.571Z,86.05
2023-05-16T13:29:29.710Z,75.89
2023-05-16T13:30:32.864Z,84.68
2023-05-16T13:31:35.848Z,78.46
2023-05-16T13:32:38.730Z,81.68
2023-05-16T13:33:41.970Z,78.58
2023-05-16T13:34:45.111Z,70.97
2023-05-16T13:35:48.077Z,77.46
2023-05-16T13:38:25.303Z,79.64
2023-05-16T13:41:38.314Z,71.02
2023-05-16T13:45:14.360Z,80.59
2023-05-16T13:46:19.536Z,79.36
2023-05-16T13:47:27.417Z,80.83
2023-05-16T13:48:44.347Z,81.99
2023-05-16T13:50:43.895Z,84.28
2023-05-16T13:57:17.653Z,79.80
2023-05-16T14:01:42.404Z,85.11
2023-05-16T14:04:02.925Z,85.61
2023-05-16T14:05:23.553Z,73.69
2023-05-16T14:09:35.543Z,85.45
2023-05-16T14:11:21.969Z,80.43
2023-05-16T14:14:52.137Z,70.91
2023-05-16T14:17:16.092Z,78.49